Aeroporto :
LOGIN :

Iscrizione | Disclaimer

   EN    FR    IT 

 










Sommario :    VFR   VFR Marginale   IFR   IFR Intensivo   IFR Molto Intensivo
Visibilità : 
Base nubi : 
>= 8 km
>= 3000ft
5 / 8 km
1000 / 3000 ft
1500m / 5 km
500 / 1000 ft
800 / 1500m
200 / 500 ft
< 800m
< 200 ft
Simboli :   Temporali  Nebbia  Neve Forte  Precipitazioni Forti  Vento > 20 kt
SIGMETs :   Varie  Temporali  Ghiacco  Turbolenza  Onda orograficha  Ceneri Vulcaniche






- Altitudine del aeroporto : 465 ft
- Codice IATA : OMR


LROD - Oradea International

ULTIMO METAR :
  • 260100Z AUTO 36001KT 9999 NCD 09/08 Q1023

METARs OBSOLETI :
  • 260030Z AUTO 02002KT 350V050 9999 NCD 09/08 Q1023
  • 260000Z AUTO 33003KT 9999 BCFG FEW210/// 09/08 Q1023
  • 252330Z AUTO 00000KT 3200 R19/1700VP2000U BR SCT210 09/08 Q1023
  • 252300Z AUTO 02003KT 9999 BKN200/// 09/08 Q1023
  • 252230Z AUTO 35004KT 9999 BKN200/// 10/09 Q1023

Previsioni scadute.



MetMap, La meteo Aeronautica in un colpo d'occhio ! - Copyright ORBIFLY Dicembre 2007 - Disclaimer

ORBIFLY MET'MAP TEAM :

Programmazione e sviluppo : Alexandra Zaïnal
Concezione : Baudouin d'Aumeries
Aiuto per la programmazione : Marc-Olivier Méhu
Supporto tecnico e logistico : Manuel Goepfert
Aiuto per la traduzione : Arnaldo La Scala

Contatto : metmap@orbifly.com




FONTI E CREDITI :

   NOAA